sensor_id;sensor_type;location;lat;lon;timestamp;P1;durP1;ratioP1;P2;durP2;ratioP2
82744;SDS011;72484;50.004;14.356;2024-03-08T00:02:39;40.90;;;28.00;;
82744;SDS011;72484;50.004;14.356;2024-03-08T00:06:56;38.50;;;27.70;;
82744;SDS011;72484;50.004;14.356;2024-03-08T00:10:16;40.30;;;28.20;;
82744;SDS011;72484;50.004;14.356;2024-03-08T00:14:16;40.00;;;28.80;;
82744;SDS011;72484;50.004;14.356;2024-03-08T00:18:16;37.30;;;26.50;;
82744;SDS011;72484;50.004;14.356;2024-03-08T00:22:36;37.90;;;28.00;;
82744;SDS011;72484;50.004;14.356;2024-03-08T00:25:55;39.60;;;28.20;;
82744;SDS011;72484;50.004;14.356;2024-03-08T00:30:12;39.10;;;28.00;;
82744;SDS011;72484;50.004;14.356;2024-03-08T00:33:32;41.60;;;29.30;;
82744;SDS011;72484;50.004;14.356;2024-03-08T00:37:50;37.50;;;26.90;;
82744;SDS011;72484;50.004;14.356;2024-03-08T00:41:27;40.80;;;28.20;;
82744;SDS011;72484;50.004;14.356;2024-03-08T00:44:48;39.70;;;28.80;;
82744;SDS011;72484;50.004;14.356;2024-03-08T00:49:05;38.10;;;27.90;;
82744;SDS011;72484;50.004;14.356;2024-03-08T00:52:25;38.40;;;28.30;;
82744;SDS011;72484;50.004;14.356;2024-03-08T00:56:43;41.50;;;28.60;;
82744;SDS011;72484;50.004;14.356;2024-03-08T01:00:21;40.10;;;28.00;;
82744;SDS011;72484;50.004;14.356;2024-03-08T01:03:40;42.60;;;30.40;;
82744;SDS011;72484;50.004;14.356;2024-03-08T01:07:40;38.20;;;27.90;;
82744;SDS011;72484;50.004;14.356;2024-03-08T01:12:00;41.80;;;29.80;;
82744;SDS011;72484;50.004;14.356;2024-03-08T01:15:38;41.50;;;28.70;;
82744;SDS011;72484;50.004;14.356;2024-03-08T01:18:58;40.10;;;28.40;;
82744;SDS011;72484;50.004;14.356;2024-03-08T01:23:16;41.10;;;29.20;;
82744;SDS011;72484;50.004;14.356;2024-03-08T01:26:55;41.20;;;29.30;;
82744;SDS011;72484;50.004;14.356;2024-03-08T01:30:32;39.60;;;28.80;;
82744;SDS011;72484;50.004;14.356;2024-03-08T01:33:51;42.60;;;30.00;;
82744;SDS011;72484;50.004;14.356;2024-03-08T01:38:09;40.20;;;28.30;;
82744;SDS011;72484;50.004;14.356;2024-03-08T01:41:47;40.60;;;29.30;;
82744;SDS011;72484;50.004;14.356;2024-03-08T01:45:26;42.30;;;29.70;;
82744;SDS011;72484;50.004;14.356;2024-03-08T01:49:03;39.70;;;29.30;;
82744;SDS011;72484;50.004;14.356;2024-03-08T01:52:40;43.90;;;30.30;;
82744;SDS011;72484;50.004;14.356;2024-03-08T01:56:18;39.70;;;28.50;;
82744;SDS011;72484;50.004;14.356;2024-03-08T01:59:38;42.40;;;29.70;;
82744;SDS011;72484;50.004;14.356;2024-03-08T02:03:56;41.00;;;29.40;;
82744;SDS011;72484;50.004;14.356;2024-03-08T02:07:16;41.10;;;29.00;;
82744;SDS011;72484;50.004;14.356;2024-03-08T02:11:33;43.20;;;30.50;;
82744;SDS011;72484;50.004;14.356;2024-03-08T02:14:52;40.50;;;28.50;;
82744;SDS011;72484;50.004;14.356;2024-03-08T02:18:54;41.60;;;29.30;;
82744;SDS011;72484;50.004;14.356;2024-03-08T02:23:11;41.40;;;29.60;;
82744;SDS011;72484;50.004;14.356;2024-03-08T02:26:49;41.20;;;28.40;;
82744;SDS011;72484;50.004;14.356;2024-03-08T02:30:10;41.90;;;29.60;;
82744;SDS011;72484;50.004;14.356;2024-03-08T02:34:28;43.50;;;29.20;;
82744;SDS011;72484;50.004;14.356;2024-03-08T02:38:05;42.00;;;29.50;;
82744;SDS011;72484;50.004;14.356;2024-03-08T02:41:25;41.30;;;29.80;;
82744;SDS011;72484;50.004;14.356;2024-03-08T02:45:43;40.10;;;28.10;;
82744;SDS011;72484;50.004;14.356;2024-03-08T02:49:22;41.90;;;29.30;;
82744;SDS011;72484;50.004;14.356;2024-03-08T02:52:41;42.60;;;29.50;;
82744;SDS011;72484;50.004;14.356;2024-03-08T02:57:01;41.30;;;29.30;;
82744;SDS011;72484;50.004;14.356;2024-03-08T03:00:22;42.80;;;30.00;;
82744;SDS011;72484;50.004;14.356;2024-03-08T03:04:40;41.10;;;28.90;;
82744;SDS011;72484;50.004;14.356;2024-03-08T03:08:18;40.60;;;28.20;;
82744;SDS011;72484;50.004;14.356;2024-03-08T03:11:58;38.80;;;27.80;;
82744;SDS011;72484;50.004;14.356;2024-03-08T03:15:16;40.80;;;27.80;;
82744;SDS011;72484;50.004;14.356;2024-03-08T03:19:36;39.50;;;27.50;;
82744;SDS011;72484;50.004;14.356;2024-03-08T03:23:12;35.60;;;24.60;;
82744;SDS011;72484;50.004;14.356;2024-03-08T03:26:50;37.10;;;25.90;;
82744;SDS011;72484;50.004;14.356;2024-03-08T03:30:27;38.30;;;26.90;;
82744;SDS011;72484;50.004;14.356;2024-03-08T03:34:05;35.80;;;25.30;;
82744;SDS011;72484;50.004;14.356;2024-03-08T03:37:26;37.30;;;26.20;;
82744;SDS011;72484;50.004;14.356;2024-03-08T03:41:25;40.00;;;27.00;;
82744;SDS011;72484;50.004;14.356;2024-03-08T03:45:44;39.60;;;27.50;;
82744;SDS011;72484;50.004;14.356;2024-03-08T03:49:03;40.20;;;28.40;;
82744;SDS011;72484;50.004;14.356;2024-03-08T03:53:21;40.50;;;28.40;;
82744;SDS011;72484;50.004;14.356;2024-03-08T03:56:41;38.50;;;27.00;;
82744;SDS011;72484;50.004;14.356;2024-03-08T04:00:59;38.70;;;27.10;;
82744;SDS011;72484;50.004;14.356;2024-03-08T04:04:19;39.20;;;26.30;;
82744;SDS011;72484;50.004;14.356;2024-03-08T04:08:20;38.90;;;27.10;;
82744;SDS011;72484;50.004;14.356;2024-03-08T04:12:38;39.50;;;26.20;;
82744;SDS011;72484;50.004;14.356;2024-03-08T04:16:16;38.10;;;27.80;;
82744;SDS011;72484;50.004;14.356;2024-03-08T04:19:36;40.20;;;28.40;;
82744;SDS011;72484;50.004;14.356;2024-03-08T04:23:55;38.90;;;27.00;;
82744;SDS011;72484;50.004;14.356;2024-03-08T04:27:14;37.90;;;27.70;;
82744;SDS011;72484;50.004;14.356;2024-03-08T04:31:34;39.30;;;28.20;;
82744;SDS011;72484;50.004;14.356;2024-03-08T04:35:11;42.10;;;29.00;;
82744;SDS011;72484;50.004;14.356;2024-03-08T04:38:47;42.50;;;28.50;;
82744;SDS011;72484;50.004;14.356;2024-03-08T04:42:26;39.80;;;27.60;;
82744;SDS011;72484;50.004;14.356;2024-03-08T04:45:45;41.40;;;28.80;;
82744;SDS011;72484;50.004;14.356;2024-03-08T04:50:06;41.60;;;29.40;;
82744;SDS011;72484;50.004;14.356;2024-03-08T04:53:42;41.70;;;29.60;;
82744;SDS011;72484;50.004;14.356;2024-03-08T04:57:19;43.50;;;29.90;;
82744;SDS011;72484;50.004;14.356;2024-03-08T05:00:39;43.60;;;30.30;;
82744;SDS011;72484;50.004;14.356;2024-03-08T05:04:55;43.20;;;29.50;;
82744;SDS011;72484;50.004;14.356;2024-03-08T05:08:34;43.40;;;29.10;;
82744;SDS011;72484;50.004;14.356;2024-03-08T05:12:10;42.70;;;28.80;;
82744;SDS011;72484;50.004;14.356;2024-03-08T05:15:49;40.70;;;28.80;;
82744;SDS011;72484;50.004;14.356;2024-03-08T05:19:25;40.30;;;29.00;;
82744;SDS011;72484;50.004;14.356;2024-03-08T05:23:03;41.90;;;29.90;;
82744;SDS011;72484;50.004;14.356;2024-03-08T05:26:23;41.30;;;28.70;;
82744;SDS011;72484;50.004;14.356;2024-03-08T05:30:40;44.70;;;30.20;;
82744;SDS011;72484;50.004;14.356;2024-03-08T05:34:19;42.10;;;28.40;;
82744;SDS011;72484;50.004;14.356;2024-03-08T05:37:56;42.70;;;30.00;;
82744;SDS011;72484;50.004;14.356;2024-03-08T05:41:34;42.10;;;28.60;;
82744;SDS011;72484;50.004;14.356;2024-03-08T05:44:53;42.20;;;30.10;;
82744;SDS011;72484;50.004;14.356;2024-03-08T05:49:12;41.80;;;29.50;;
82744;SDS011;72484;50.004;14.356;2024-03-08T05:52:50;42.60;;;29.00;;
82744;SDS011;72484;50.004;14.356;2024-03-08T05:56:28;44.00;;;30.90;;
82744;SDS011;72484;50.004;14.356;2024-03-08T06:00:07;44.80;;;29.60;;
82744;SDS011;72484;50.004;14.356;2024-03-08T06:03:43;46.10;;;30.70;;
82744;SDS011;72484;50.004;14.356;2024-03-08T06:07:21;49.20;;;32.40;;
82744;SDS011;72484;50.004;14.356;2024-03-08T06:10:41;43.80;;;29.30;;
82744;SDS011;72484;50.004;14.356;2024-03-08T06:14:40;47.40;;;31.70;;
82744;SDS011;72484;50.004;14.356;2024-03-08T06:18:40;45.20;;;30.20;;
82744;SDS011;72484;50.004;14.356;2024-03-08T06:22:43;46.40;;;30.80;;
82744;SDS011;72484;50.004;14.356;2024-03-08T06:27:00;44.50;;;30.40;;
82744;SDS011;72484;50.004;14.356;2024-03-08T06:30:19;45.90;;;31.40;;
82744;SDS011;72484;50.004;14.356;2024-03-08T06:34:18;46.50;;;31.00;;
82744;SDS011;72484;50.004;14.356;2024-03-08T06:38:36;43.90;;;31.50;;
82744;SDS011;72484;50.004;14.356;2024-03-08T06:41:57;44.40;;;30.10;;
82744;SDS011;72484;50.004;14.356;2024-03-08T06:46:17;41.80;;;28.70;;
82744;SDS011;72484;50.004;14.356;2024-03-08T06:49:35;44.30;;;30.70;;
82744;SDS011;72484;50.004;14.356;2024-03-08T06:53:54;41.90;;;28.60;;
82744;SDS011;72484;50.004;14.356;2024-03-08T06:57:15;43.40;;;28.90;;
82744;SDS011;72484;50.004;14.356;2024-03-08T07:01:35;46.70;;;30.50;;
82744;SDS011;72484;50.004;14.356;2024-03-08T07:04:54;42.60;;;29.30;;
82744;SDS011;72484;50.004;14.356;2024-03-08T07:09:12;42.70;;;30.40;;
82744;SDS011;72484;50.004;14.356;2024-03-08T07:12:49;47.10;;;30.50;;
82744;SDS011;72484;50.004;14.356;2024-03-08T07:16:27;42.10;;;29.00;;
82744;SDS011;72484;50.004;14.356;2024-03-08T07:20:05;45.60;;;30.20;;
82744;SDS011;72484;50.004;14.356;2024-03-08T07:23:42;41.20;;;28.70;;
82744;SDS011;72484;50.004;14.356;2024-03-08T07:27:02;40.80;;;28.00;;
82744;SDS011;72484;50.004;14.356;2024-03-08T07:31:20;37.70;;;25.70;;
82744;SDS011;72484;50.004;14.356;2024-03-08T07:34:59;37.70;;;25.50;;
82744;SDS011;72484;50.004;14.356;2024-03-08T07:38:18;37.20;;;25.50;;
82744;SDS011;72484;50.004;14.356;2024-03-08T07:42:17;36.50;;;24.10;;
82744;SDS011;72484;50.004;14.356;2024-03-08T07:46:17;35.30;;;24.20;;
82744;SDS011;72484;50.004;14.356;2024-03-08T07:50:18;36.50;;;24.60;;
82744;SDS011;72484;50.004;14.356;2024-03-08T07:54:18;30.30;;;21.20;;
82744;SDS011;72484;50.004;14.356;2024-03-08T07:58:18;33.60;;;22.90;;
82744;SDS011;72484;50.004;14.356;2024-03-08T08:02:21;36.30;;;22.50;;
82744;SDS011;72484;50.004;14.356;2024-03-08T08:06:21;29.80;;;20.20;;
82744;SDS011;72484;50.004;14.356;2024-03-08T08:10:38;33.40;;;22.90;;
82744;SDS011;72484;50.004;14.356;2024-03-08T08:13:59;32.10;;;21.10;;
82744;SDS011;72484;50.004;14.356;2024-03-08T08:18:15;33.30;;;22.30;;
82744;SDS011;72484;50.004;14.356;2024-03-08T08:21:36;34.90;;;23.20;;
82744;SDS011;72484;50.004;14.356;2024-03-08T08:25:53;32.00;;;21.70;;
82744;SDS011;72484;50.004;14.356;2024-03-08T08:29:13;29.90;;;19.80;;
82744;SDS011;72484;50.004;14.356;2024-03-08T08:33:11;28.30;;;19.70;;
82744;SDS011;72484;50.004;14.356;2024-03-08T08:37:28;28.80;;;20.40;;
82744;SDS011;72484;50.004;14.356;2024-03-08T08:40:48;30.80;;;20.60;;
82744;SDS011;72484;50.004;14.356;2024-03-08T08:45:06;28.60;;;19.50;;
82744;SDS011;72484;50.004;14.356;2024-03-08T08:48:44;29.00;;;19.60;;
82744;SDS011;72484;50.004;14.356;2024-03-08T08:52:04;28.90;;;18.60;;
82744;SDS011;72484;50.004;14.356;2024-03-08T08:56:22;26.80;;;17.70;;
82744;SDS011;72484;50.004;14.356;2024-03-08T08:59:41;27.30;;;18.60;;
82744;SDS011;72484;50.004;14.356;2024-03-08T09:04:00;29.90;;;19.40;;
82744;SDS011;72484;50.004;14.356;2024-03-08T09:07:37;30.00;;;20.00;;
82744;SDS011;72484;50.004;14.356;2024-03-08T09:10:56;25.50;;;17.70;;
82744;SDS011;72484;50.004;14.356;2024-03-08T09:14:56;24.90;;;16.90;;
82744;SDS011;72484;50.004;14.356;2024-03-08T09:18:57;25.30;;;17.20;;
82744;SDS011;72484;50.004;14.356;2024-03-08T09:23:14;25.20;;;17.10;;
82744;SDS011;72484;50.004;14.356;2024-03-08T09:26:52;25.30;;;16.30;;
82744;SDS011;72484;50.004;14.356;2024-03-08T09:30:30;25.00;;;17.20;;
82744;SDS011;72484;50.004;14.356;2024-03-08T09:34:08;25.00;;;16.90;;
82744;SDS011;72484;50.004;14.356;2024-03-08T09:37:45;24.50;;;16.90;;
82744;SDS011;72484;50.004;14.356;2024-03-08T09:41:23;24.30;;;15.90;;
82744;SDS011;72484;50.004;14.356;2024-03-08T09:45:01;25.70;;;17.10;;
82744;SDS011;72484;50.004;14.356;2024-03-08T09:48:39;26.00;;;18.20;;
82744;SDS011;72484;50.004;14.356;2024-03-08T09:52:17;25.70;;;17.90;;
82744;SDS011;72484;50.004;14.356;2024-03-08T09:55:36;24.00;;;15.40;;
82744;SDS011;72484;50.004;14.356;2024-03-08T09:59:39;25.90;;;17.10;;
82744;SDS011;72484;50.004;14.356;2024-03-08T10:04:02;23.50;;;16.00;;
82744;SDS011;72484;50.004;14.356;2024-03-08T10:07:38;24.90;;;17.30;;
82744;SDS011;72484;50.004;14.356;2024-03-08T10:10:58;26.60;;;18.00;;
82744;SDS011;72484;50.004;14.356;2024-03-08T10:15:17;24.70;;;16.80;;
82744;SDS011;72484;50.004;14.356;2024-03-08T10:18:37;27.00;;;17.50;;
82744;SDS011;72484;50.004;14.356;2024-03-08T10:22:36;25.40;;;17.80;;
82744;SDS011;72484;50.004;14.356;2024-03-08T10:26:59;27.40;;;18.60;;
82744;SDS011;72484;50.004;14.356;2024-03-08T10:30:35;23.50;;;16.30;;
82744;SDS011;72484;50.004;14.356;2024-03-08T10:33:55;23.10;;;16.10;;
82744;SDS011;72484;50.004;14.356;2024-03-08T10:37:53;28.20;;;18.20;;
82744;SDS011;72484;50.004;14.356;2024-03-08T10:41:58;25.50;;;17.60;;
82744;SDS011;72484;50.004;14.356;2024-03-08T10:46:03;24.90;;;16.90;;
82744;SDS011;72484;50.004;14.356;2024-03-08T10:50:31;26.10;;;18.10;;
82744;SDS011;72484;50.004;14.356;2024-03-08T10:54:09;24.30;;;17.40;;
82744;SDS011;72484;50.004;14.356;2024-03-08T10:57:29;23.90;;;15.40;;
82744;SDS011;72484;50.004;14.356;2024-03-08T11:01:28;19.80;;;13.90;;
82744;SDS011;72484;50.004;14.356;2024-03-08T11:05:47;22.30;;;15.60;;
82744;SDS011;72484;50.004;14.356;2024-03-08T11:09:30;24.10;;;16.70;;
82744;SDS011;72484;50.004;14.356;2024-03-08T11:13:02;26.60;;;17.80;;
82744;SDS011;72484;50.004;14.356;2024-03-08T11:20:55;26.60;;;17.60;;
82744;SDS011;72484;50.004;14.356;2024-03-08T11:24:39;27.40;;;18.60;;
82744;SDS011;72484;50.004;14.356;2024-03-08T11:28:14;20.50;;;14.20;;
82744;SDS011;72484;50.004;14.356;2024-03-08T11:31:30;20.50;;;14.20;;
82744;SDS011;72484;50.004;14.356;2024-03-08T11:35:31;20.20;;;13.70;;
82744;SDS011;72484;50.004;14.356;2024-03-08T11:39:30;20.20;;;14.00;;
82744;SDS011;72484;50.004;14.356;2024-03-08T11:43:47;24.40;;;15.80;;
82744;SDS011;72484;50.004;14.356;2024-03-08T11:47:10;24.30;;;16.70;;
82744;SDS011;72484;50.004;14.356;2024-03-08T11:51:29;26.30;;;17.10;;
82744;SDS011;72484;50.004;14.356;2024-03-08T11:55:06;23.10;;;15.80;;
82744;SDS011;72484;50.004;14.356;2024-03-08T11:58:25;22.70;;;15.20;;
82744;SDS011;72484;50.004;14.356;2024-03-08T12:02:42;22.20;;;14.40;;
82744;SDS011;72484;50.004;14.356;2024-03-08T12:06:02;20.60;;;14.30;;
82744;SDS011;72484;50.004;14.356;2024-03-08T12:10:19;16.20;;;11.20;;
82744;SDS011;72484;50.004;14.356;2024-03-08T12:13:38;15.90;;;9.70;;
82744;SDS011;72484;50.004;14.356;2024-03-08T12:17:37;19.70;;;13.70;;
82744;SDS011;72484;50.004;14.356;2024-03-08T12:21:55;21.00;;;14.00;;
82744;SDS011;72484;50.004;14.356;2024-03-08T12:25:33;16.00;;;10.20;;
82744;SDS011;72484;50.004;14.356;2024-03-08T12:28:52;20.60;;;13.90;;
82744;SDS011;72484;50.004;14.356;2024-03-08T12:33:12;19.20;;;12.70;;
82744;SDS011;72484;50.004;14.356;2024-03-08T12:37:10;12.70;;;7.60;;
82744;SDS011;72484;50.004;14.356;2024-03-08T12:41:09;12.10;;;7.50;;
82744;SDS011;72484;50.004;14.356;2024-03-08T12:45:08;13.90;;;8.60;;
82744;SDS011;72484;50.004;14.356;2024-03-08T12:49:07;13.50;;;7.60;;
82744;SDS011;72484;50.004;14.356;2024-03-08T12:53:25;13.00;;;7.80;;
82744;SDS011;72484;50.004;14.356;2024-03-08T12:57:03;12.80;;;7.90;;
82744;SDS011;72484;50.004;14.356;2024-03-08T13:00:40;14.10;;;8.30;;
82744;SDS011;72484;50.004;14.356;2024-03-08T13:04:18;12.20;;;7.30;;
82744;SDS011;72484;50.004;14.356;2024-03-08T13:07:56;13.30;;;7.90;;
82744;SDS011;72484;50.004;14.356;2024-03-08T13:11:34;11.40;;;7.20;;
82744;SDS011;72484;50.004;14.356;2024-03-08T13:15:11;10.80;;;6.70;;
82744;SDS011;72484;50.004;14.356;2024-03-08T13:18:50;11.00;;;6.60;;
82744;SDS011;72484;50.004;14.356;2024-03-08T13:22:27;12.00;;;7.60;;
82744;SDS011;72484;50.004;14.356;2024-03-08T13:26:05;12.70;;;7.50;;
82744;SDS011;72484;50.004;14.356;2024-03-08T13:29:26;11.60;;;7.10;;
82744;SDS011;72484;50.004;14.356;2024-03-08T13:33:43;11.80;;;7.00;;
82744;SDS011;72484;50.004;14.356;2024-03-08T13:37:04;11.10;;;6.90;;
82744;SDS011;72484;50.004;14.356;2024-03-08T13:41:05;11.40;;;7.00;;
82744;SDS011;72484;50.004;14.356;2024-03-08T13:45:05;10.00;;;5.80;;
82744;SDS011;72484;50.004;14.356;2024-03-08T13:49:26;9.30;;;5.50;;
82744;SDS011;72484;50.004;14.356;2024-03-08T13:53:03;10.60;;;5.50;;
82744;SDS011;72484;50.004;14.356;2024-03-08T13:56:22;9.50;;;5.30;;
82744;SDS011;72484;50.004;14.356;2024-03-08T14:00:21;10.30;;;5.90;;
82744;SDS011;72484;50.004;14.356;2024-03-08T14:04:22;11.20;;;6.50;;
82744;SDS011;72484;50.004;14.356;2024-03-08T14:08:22;10.30;;;6.20;;
82744;SDS011;72484;50.004;14.356;2024-03-08T14:12:23;12.10;;;7.10;;
82744;SDS011;72484;50.004;14.356;2024-03-08T14:16:22;12.60;;;6.40;;
82744;SDS011;72484;50.004;14.356;2024-03-08T14:20:41;11.50;;;7.00;;
82744;SDS011;72484;50.004;14.356;2024-03-08T14:24:18;11.70;;;6.70;;
82744;SDS011;72484;50.004;14.356;2024-03-08T14:27:56;12.00;;;6.70;;
82744;SDS011;72484;50.004;14.356;2024-03-08T14:31:34;13.60;;;7.70;;
82744;SDS011;72484;50.004;14.356;2024-03-08T14:34:53;12.70;;;7.40;;
82744;SDS011;72484;50.004;14.356;2024-03-08T14:39:13;14.90;;;7.90;;
82744;SDS011;72484;50.004;14.356;2024-03-08T14:42:49;14.40;;;8.00;;
82744;SDS011;72484;50.004;14.356;2024-03-08T14:46:09;12.30;;;7.30;;
82744;SDS011;72484;50.004;14.356;2024-03-08T14:50:29;12.60;;;6.80;;
82744;SDS011;72484;50.004;14.356;2024-03-08T14:54:08;12.70;;;7.80;;
82744;SDS011;72484;50.004;14.356;2024-03-08T14:57:47;13.90;;;7.50;;
82744;SDS011;72484;50.004;14.356;2024-03-08T15:01:23;14.00;;;8.70;;
82744;SDS011;72484;50.004;14.356;2024-03-08T15:04:45;13.90;;;7.90;;
82744;SDS011;72484;50.004;14.356;2024-03-08T15:08:54;14.10;;;8.20;;
82744;SDS011;72484;50.004;14.356;2024-03-08T15:13:13;13.30;;;8.00;;
82744;SDS011;72484;50.004;14.356;2024-03-08T15:16:49;14.20;;;8.30;;
82744;SDS011;72484;50.004;14.356;2024-03-08T15:20:09;14.00;;;8.40;;
82744;SDS011;72484;50.004;14.356;2024-03-08T15:24:30;12.30;;;7.20;;
82744;SDS011;72484;50.004;14.356;2024-03-08T15:27:50;13.00;;;7.20;;
82744;SDS011;72484;50.004;14.356;2024-03-08T15:32:12;14.30;;;8.70;;
82744;SDS011;72484;50.004;14.356;2024-03-08T15:35:49;12.80;;;7.90;;
82744;SDS011;72484;50.004;14.356;2024-03-08T15:39:10;14.00;;;8.30;;
82744;SDS011;72484;50.004;14.356;2024-03-08T15:43:28;13.40;;;8.00;;
82744;SDS011;72484;50.004;14.356;2024-03-08T15:47:04;13.80;;;8.60;;
82744;SDS011;72484;50.004;14.356;2024-03-08T15:50:42;14.80;;;8.70;;
82744;SDS011;72484;50.004;14.356;2024-03-08T15:54:20;16.20;;;9.40;;
82744;SDS011;72484;50.004;14.356;2024-03-08T15:57:39;15.30;;;9.30;;
82744;SDS011;72484;50.004;14.356;2024-03-08T16:01:56;15.80;;;9.20;;
82744;SDS011;72484;50.004;14.356;2024-03-08T16:05:16;15.80;;;9.20;;
82744;SDS011;72484;50.004;14.356;2024-03-08T16:09:20;15.40;;;9.20;;
82744;SDS011;72484;50.004;14.356;2024-03-08T16:13:22;15.30;;;9.20;;
82744;SDS011;72484;50.004;14.356;2024-03-08T16:17:23;17.40;;;10.40;;
82744;SDS011;72484;50.004;14.356;2024-03-08T16:21:43;18.70;;;11.60;;
82744;SDS011;72484;50.004;14.356;2024-03-08T16:25:21;17.30;;;9.80;;
82744;SDS011;72484;50.004;14.356;2024-03-08T16:28:58;22.20;;;11.50;;
82744;SDS011;72484;50.004;14.356;2024-03-08T16:32:36;17.90;;;10.50;;
82744;SDS011;72484;50.004;14.356;2024-03-08T16:35:56;16.20;;;10.10;;
82744;SDS011;72484;50.004;14.356;2024-03-08T16:40:13;16.90;;;10.30;;
82744;SDS011;72484;50.004;14.356;2024-03-08T16:43:32;16.30;;;10.90;;
82744;SDS011;72484;50.004;14.356;2024-03-08T16:47:33;16.40;;;10.10;;
82744;SDS011;72484;50.004;14.356;2024-03-08T16:51:34;17.60;;;11.20;;
82744;SDS011;72484;50.004;14.356;2024-03-08T16:55:52;17.70;;;11.10;;
82744;SDS011;72484;50.004;14.356;2024-03-08T16:59:12;18.60;;;11.40;;
82744;SDS011;72484;50.004;14.356;2024-03-08T17:03:29;18.70;;;11.80;;
82744;SDS011;72484;50.004;14.356;2024-03-08T17:07:07;16.60;;;11.10;;
82744;SDS011;72484;50.004;14.356;2024-03-08T17:10:44;18.10;;;12.20;;
82744;SDS011;72484;50.004;14.356;2024-03-08T17:14:22;19.10;;;12.30;;
82744;SDS011;72484;50.004;14.356;2024-03-08T17:18:00;21.10;;;14.00;;
82744;SDS011;72484;50.004;14.356;2024-03-08T17:21:19;23.20;;;15.80;;
82744;SDS011;72484;50.004;14.356;2024-03-08T17:25:36;18.70;;;11.80;;
82744;SDS011;72484;50.004;14.356;2024-03-08T17:29:13;19.80;;;12.20;;
82744;SDS011;72484;50.004;14.356;2024-03-08T17:32:51;20.40;;;12.70;;
82744;SDS011;72484;50.004;14.356;2024-03-08T17:36:11;20.40;;;12.90;;
82744;SDS011;72484;50.004;14.356;2024-03-08T17:40:29;20.90;;;13.30;;
82744;SDS011;72484;50.004;14.356;2024-03-08T17:44:07;18.70;;;12.00;;
82744;SDS011;72484;50.004;14.356;2024-03-08T17:47:45;18.80;;;12.30;;
82744;SDS011;72484;50.004;14.356;2024-03-08T17:51:05;19.50;;;12.20;;
82744;SDS011;72484;50.004;14.356;2024-03-08T17:55:23;19.40;;;12.30;;
82744;SDS011;72484;50.004;14.356;2024-03-08T17:59:01;25.30;;;16.50;;
82744;SDS011;72484;50.004;14.356;2024-03-08T18:02:39;21.50;;;14.10;;
82744;SDS011;72484;50.004;14.356;2024-03-08T18:06:16;20.60;;;13.70;;
82744;SDS011;72484;50.004;14.356;2024-03-08T18:09:36;20.70;;;12.70;;
82744;SDS011;72484;50.004;14.356;2024-03-08T18:13:52;20.00;;;12.80;;
82744;SDS011;72484;50.004;14.356;2024-03-08T18:17:30;20.40;;;13.50;;
82744;SDS011;72484;50.004;14.356;2024-03-08T18:21:07;21.20;;;13.70;;
82744;SDS011;72484;50.004;14.356;2024-03-08T18:24:45;21.40;;;13.70;;
82744;SDS011;72484;50.004;14.356;2024-03-08T18:28:23;23.30;;;14.50;;
82744;SDS011;72484;50.004;14.356;2024-03-08T18:32:01;23.90;;;15.10;;
82744;SDS011;72484;50.004;14.356;2024-03-08T18:35:38;21.40;;;14.60;;
82744;SDS011;72484;50.004;14.356;2024-03-08T18:39:16;23.20;;;15.50;;
82744;SDS011;72484;50.004;14.356;2024-03-08T18:42:55;24.50;;;16.10;;
82744;SDS011;72484;50.004;14.356;2024-03-08T18:46:14;24.70;;;16.40;;
82744;SDS011;72484;50.004;14.356;2024-03-08T18:50:32;25.30;;;17.40;;
82744;SDS011;72484;50.004;14.356;2024-03-08T18:54:10;23.10;;;14.70;;
82744;SDS011;72484;50.004;14.356;2024-03-08T18:57:47;21.20;;;13.70;;
82744;SDS011;72484;50.004;14.356;2024-03-08T19:01:08;24.30;;;14.30;;
82744;SDS011;72484;50.004;14.356;2024-03-08T19:05:07;21.30;;;13.50;;
82744;SDS011;72484;50.004;14.356;2024-03-08T19:09:12;21.10;;;13.20;;
82744;SDS011;72484;50.004;14.356;2024-03-08T19:13:13;21.50;;;14.20;;
82744;SDS011;72484;50.004;14.356;2024-03-08T19:17:30;22.30;;;14.40;;
82744;SDS011;72484;50.004;14.356;2024-03-08T19:21:08;21.90;;;13.60;;
82744;SDS011;72484;50.004;14.356;2024-03-08T19:24:45;21.70;;;13.40;;
82744;SDS011;72484;50.004;14.356;2024-03-08T19:28:23;21.50;;;13.20;;
82744;SDS011;72484;50.004;14.356;2024-03-08T19:31:43;22.60;;;13.30;;
82744;SDS011;72484;50.004;14.356;2024-03-08T19:35:45;20.00;;;13.00;;
82744;SDS011;72484;50.004;14.356;2024-03-08T19:40:02;22.30;;;14.50;;
82744;SDS011;72484;50.004;14.356;2024-03-08T19:43:22;23.40;;;15.10;;
82744;SDS011;72484;50.004;14.356;2024-03-08T19:47:43;20.90;;;13.90;;
82744;SDS011;72484;50.004;14.356;2024-03-08T19:51:18;22.30;;;14.50;;
82744;SDS011;72484;50.004;14.356;2024-03-08T19:54:55;23.10;;;14.50;;
82744;SDS011;72484;50.004;14.356;2024-03-08T19:58:33;23.40;;;14.20;;
82744;SDS011;72484;50.004;14.356;2024-03-08T20:01:53;22.20;;;14.20;;
82744;SDS011;72484;50.004;14.356;2024-03-08T20:06:10;20.70;;;13.00;;
82744;SDS011;72484;50.004;14.356;2024-03-08T20:09:30;21.30;;;13.70;;
82744;SDS011;72484;50.004;14.356;2024-03-08T20:13:47;22.40;;;15.10;;
82744;SDS011;72484;50.004;14.356;2024-03-08T20:17:24;23.20;;;14.50;;
82744;SDS011;72484;50.004;14.356;2024-03-08T20:21:02;21.70;;;13.90;;
82744;SDS011;72484;50.004;14.356;2024-03-08T20:24:40;24.50;;;15.20;;
82744;SDS011;72484;50.004;14.356;2024-03-08T20:28:18;22.80;;;14.90;;
82744;SDS011;72484;50.004;14.356;2024-03-08T20:31:57;23.60;;;15.20;;
82744;SDS011;72484;50.004;14.356;2024-03-08T20:35:33;21.80;;;14.70;;
82744;SDS011;72484;50.004;14.356;2024-03-08T20:39:11;23.60;;;15.60;;
82744;SDS011;72484;50.004;14.356;2024-03-08T20:42:48;20.90;;;13.90;;
82744;SDS011;72484;50.004;14.356;2024-03-08T20:46:27;22.30;;;14.40;;
82744;SDS011;72484;50.004;14.356;2024-03-08T20:49:46;20.90;;;14.00;;
82744;SDS011;72484;50.004;14.356;2024-03-08T20:54:04;20.70;;;13.40;;
82744;SDS011;72484;50.004;14.356;2024-03-08T20:57:25;22.50;;;14.60;;
82744;SDS011;72484;50.004;14.356;2024-03-08T21:01:43;21.40;;;13.50;;
82744;SDS011;72484;50.004;14.356;2024-03-08T21:05:22;20.50;;;13.30;;
82744;SDS011;72484;50.004;14.356;2024-03-08T21:08:41;18.10;;;11.90;;
82744;SDS011;72484;50.004;14.356;2024-03-08T21:12:59;19.10;;;12.10;;
82744;SDS011;72484;50.004;14.356;2024-03-08T21:16:37;18.90;;;12.30;;
82744;SDS011;72484;50.004;14.356;2024-03-08T21:19:56;18.30;;;12.40;;
82744;SDS011;72484;50.004;14.356;2024-03-08T21:23:59;18.70;;;12.10;;
82744;SDS011;72484;50.004;14.356;2024-03-08T21:28:18;19.50;;;12.90;;
82744;SDS011;72484;50.004;14.356;2024-03-08T21:31:56;20.40;;;13.30;;
82744;SDS011;72484;50.004;14.356;2024-03-08T21:35:16;20.30;;;13.40;;
82744;SDS011;72484;50.004;14.356;2024-03-08T21:39:33;19.40;;;13.40;;
82744;SDS011;72484;50.004;14.356;2024-03-08T21:42:54;21.30;;;13.60;;
82744;SDS011;72484;50.004;14.356;2024-03-08T21:46:58;19.60;;;13.00;;
82744;SDS011;72484;50.004;14.356;2024-03-08T21:51:17;20.00;;;12.90;;
82744;SDS011;72484;50.004;14.356;2024-03-08T21:54:38;20.40;;;13.70;;